Time;durP1;ratioP1;P1;durP2;ratioP2;P2;SDS_P1;SDS_P2;PMS_P1;PMS_P2;Temp;Humidity;BMP_temperature;BMP_pressure;BME280_temperature;BME280_humidity;BME280_pressure;Samples;Min_cycle;Max_cycle;Signal;HPM_P1;HPM_P2
2023/03/19 00:02:12;;;;;;;13.20;9.18;;;12.20;99.90;;;;;;5004563;28;20034;-73
2023/03/19 00:04:37;;;;;;;19.52;10.57;;;12.10;99.90;;;;;;5006696;28;20076;-73
2023/03/19 00:07:03;;;;;;;16.88;10.38;;;12.10;99.90;;;;;;5007970;28;20034;-73
2023/03/19 00:09:29;;;;;;;16.90;9.73;;;12.10;99.90;;;;;;5011139;28;20080;-72
2023/03/19 00:11:55;;;;;;;16.23;9.88;;;12.10;99.90;;;;;;5011509;28;20117;-73
2023/03/19 00:14:24;;;;;;;14.65;10.05;;;12.10;99.90;;;;;;5009488;28;20032;-72
2023/03/19 00:16:50;;;;;;;13.20;8.68;;;12.10;99.90;;;;;;5011260;28;20032;-74
2023/03/19 00:19:16;;;;;;;12.35;8.48;;;12.10;99.90;;;;;;5007416;28;20054;-73
2023/03/19 00:21:42;;;;;;;15.20;9.05;;;12.10;99.90;;;;;;5007183;28;20120;-73
2023/03/19 00:24:08;;;;;;;13.02;8.55;;;12.10;99.90;;;;;;5006914;28;20045;-73
2023/03/19 00:26:35;;;;;;;12.48;8.55;;;12.10;99.90;;;;;;5009613;28;20100;-73
2023/03/19 00:29:03;;;;;;;12.82;7.97;;;12.00;99.90;;;;;;5007172;28;20033;-73
2023/03/19 00:31:29;;;;;;;11.80;7.60;;;12.00;99.90;;;;;;5010405;28;20033;-73
2023/03/19 00:33:59;;;;;;;12.20;8.48;;;12.00;99.90;;;;;;5010896;28;20108;-73
2023/03/19 00:36:27;;;;;;;10.75;7.30;;;12.00;99.90;;;;;;5010684;28;20021;-74
2023/03/19 00:38:53;;;;;;;11.52;7.20;;;12.00;99.90;;;;;;5008824;28;20394;-73
2023/03/19 00:41:19;;;;;;;9.45;7.07;;;11.90;99.90;;;;;;5014767;28;20030;-74
2023/03/19 00:43:46;;;;;;;9.07;6.53;;;11.90;99.90;;;;;;5012553;28;20061;-73
2023/03/19 00:46:12;;;;;;;9.93;6.25;;;11.90;99.90;;;;;;5009399;28;20038;-72
2023/03/19 00:48:38;;;;;;;8.98;5.60;;;11.90;99.90;;;;;;5010315;28;20034;-72
2023/03/19 00:51:06;;;;;;;7.80;5.78;;;11.90;99.90;;;;;;5006840;28;20053;-73
2023/03/19 00:53:43;;;;;;;9.10;5.90;;;11.90;99.90;;;;;;5007264;28;20026;-72
2023/03/19 00:56:11;;;;;;;7.30;5.60;;;11.80;99.90;;;;;;5007765;28;20385;-72
2023/03/19 00:58:37;;;;;;;10.98;5.15;;;11.80;99.90;;;;;;5008470;28;20096;-73
2023/03/19 01:01:04;;;;;;;7.90;5.20;;;11.80;99.90;;;;;;5032574;28;20088;-73
2023/03/19 01:03:30;;;;;;;6.95;4.80;;;11.80;99.90;;;;;;5010367;28;20442;-73
2023/03/19 01:05:57;;;;;;;8.23;4.97;;;11.80;99.90;;;;;;5007828;28;20045;-73
2023/03/19 01:08:23;;;;;;;9.10;5.25;;;11.90;99.90;;;;;;5008061;28;20034;-73
2023/03/19 01:10:49;;;;;;;8.13;4.68;;;11.80;99.90;;;;;;5009427;28;20048;-72
2023/03/19 01:13:14;;;;;;;6.28;5.00;;;11.80;99.90;;;;;;5008744;28;20041;-72
2023/03/19 01:15:42;;;;;;;6.25;4.50;;;11.90;99.90;;;;;;5009893;28;20041;-73
2023/03/19 01:18:10;;;;;;;5.38;3.80;;;11.80;99.90;;;;;;5007758;28;20054;-73
2023/03/19 01:20:38;;;;;;;6.90;4.20;;;11.80;99.90;;;;;;5007757;28;20034;-73
2023/03/19 01:23:05;;;;;;;6.20;3.95;;;11.80;99.90;;;;;;5009956;28;20037;-72
2023/03/19 01:25:31;;;;;;;5.32;3.70;;;11.70;99.90;;;;;;5009548;28;20053;-73
2023/03/19 01:27:57;;;;;;;5.65;4.18;;;11.70;99.90;;;;;;5006874;28;20034;-73
2023/03/19 01:30:24;;;;;;;6.00;3.63;;;11.70;99.90;;;;;;5006418;28;20029;-73
2023/03/19 01:32:50;;;;;;;5.30;3.80;;;11.70;99.90;;;;;;5005858;28;20036;-73
2023/03/19 01:35:15;;;;;;;4.25;3.55;;;11.70;99.90;;;;;;5008184;28;20034;-73
2023/03/19 01:37:41;;;;;;;7.53;4.20;;;11.70;99.90;;;;;;5006326;28;20030;-73
2023/03/19 01:40:10;;;;;;;4.93;3.63;;;11.70;99.90;;;;;;5007308;28;20041;-73
2023/03/19 01:42:54;;;;;;;8.88;3.78;;;11.70;99.90;;;;;;5009357;28;20021;-73
2023/03/19 01:45:34;;;;;;;9.70;5.22;;;11.70;99.90;;;;;;5006968;28;20033;-73
2023/03/19 01:48:02;;;;;;;9.32;5.70;;;11.70;99.90;;;;;;5008067;28;20505;-73
2023/03/19 01:50:38;;;;;;;9.18;6.03;;;11.70;99.90;;;;;;5009276;28;20513;-73
2023/03/19 01:53:04;;;;;;;10.05;6.10;;;11.70;99.90;;;;;;5007487;28;20037;-73
2023/03/19 01:55:30;;;;;;;10.98;6.82;;;11.70;99.90;;;;;;5008436;28;20143;-73
2023/03/19 01:57:56;;;;;;;10.45;6.63;;;11.70;99.90;;;;;;5032688;28;20486;-73
2023/03/19 02:00:22;;;;;;;9.07;5.68;;;11.70;99.90;;;;;;5008614;28;20096;-72
2023/03/19 02:02:52;;;;;;;11.23;6.28;;;11.70;99.90;;;;;;5007392;28;20029;-73
2023/03/19 02:05:24;;;;;;;9.85;6.18;;;11.70;99.90;;;;;;5007473;28;20038;-72
2023/03/19 02:07:53;;;;;;;10.57;5.70;;;11.70;99.90;;;;;;5009002;28;20054;-73
2023/03/19 02:10:21;;;;;;;6.28;4.47;;;11.60;99.90;;;;;;5004633;28;20100;-73
2023/03/19 02:12:47;;;;;;;7.47;4.47;;;11.60;99.90;;;;;;5008458;28;20041;-73
2023/03/19 02:15:13;;;;;;;4.28;3.53;;;11.60;99.90;;;;;;5008583;28;20105;-72
2023/03/19 02:17:40;;;;;;;7.00;4.55;;;11.60;99.90;;;;;;5009328;28;20721;-73
2023/03/19 02:20:12;;;;;;;7.35;3.92;;;11.50;99.90;;;;;;5003127;28;20693;-73
2023/03/19 02:22:42;;;;;;;5.53;3.70;;;11.50;99.90;;;;;;5006417;28;20072;-73
2023/03/19 02:25:20;;;;;;;4.35;3.45;;;11.50;99.90;;;;;;5005953;28;20057;-73
2023/03/19 02:27:46;;;;;;;5.32;3.75;;;11.50;99.90;;;;;;5007828;28;20865;-73
2023/03/19 02:30:32;;;;;;;4.78;3.63;;;11.40;99.90;;;;;;5013747;28;20029;-73
2023/03/19 02:32:57;;;;;;;4.88;3.60;;;11.40;99.90;;;;;;5008419;28;20057;-73
2023/03/19 02:35:25;;;;;;;4.80;3.38;;;11.40;99.90;;;;;;5008893;28;20123;-72
2023/03/19 02:37:51;;;;;;;4.32;3.60;;;11.30;99.90;;;;;;5005108;28;20030;-72
2023/03/19 02:40:34;;;;;;;5.72;3.45;;;11.40;99.90;;;;;;5027012;28;20038;-73
2023/03/19 02:43:00;;;;;;;4.18;2.97;;;11.30;99.90;;;;;;5031769;28;20434;-73
2023/03/19 02:45:31;;;;;;;6.57;3.42;;;11.30;99.90;;;;;;5006983;28;20444;-73
2023/03/19 02:47:57;;;;;;;6.40;3.28;;;11.20;99.90;;;;;;5006127;28;20037;-73
2023/03/19 02:50:23;;;;;;;6.22;2.90;;;11.30;99.90;;;;;;5006025;28;20057;-73
2023/03/19 02:52:49;;;;;;;3.90;2.92;;;11.30;99.90;;;;;;5006600;28;20073;-72
2023/03/19 02:55:17;;;;;;;4.20;3.00;;;11.20;99.90;;;;;;5008075;28;20079;-73
2023/03/19 02:57:44;;;;;;;4.35;3.33;;;11.20;99.90;;;;;;5002374;28;20116;-73
2023/03/19 03:00:11;;;;;;;4.78;2.80;;;11.20;99.90;;;;;;5003559;28;20113;-72
2023/03/19 03:02:37;;;;;;;4.13;3.00;;;11.20;99.90;;;;;;5006120;28;20054;-73
2023/03/19 03:05:04;;;;;;;5.25;3.20;;;11.20;99.90;;;;;;5008112;28;20042;-72
2023/03/19 03:07:29;;;;;;;5.25;2.80;;;11.20;99.90;;;;;;5003921;28;20036;-72
2023/03/19 03:09:55;;;;;;;4.70;3.17;;;11.10;99.90;;;;;;5006394;28;20402;-72
2023/03/19 03:12:21;;;;;;;6.68;3.63;;;11.10;99.90;;;;;;5006375;28;20037;-73
2023/03/19 03:14:47;;;;;;;6.25;3.72;;;11.10;99.90;;;;;;5005940;28;20117;-72
2023/03/19 03:17:13;;;;;;;5.72;3.47;;;11.10;99.90;;;;;;5005840;28;20033;-72
2023/03/19 03:19:38;;;;;;;5.78;3.67;;;11.00;99.90;;;;;;5007117;28;20029;-73
2023/03/19 03:22:04;;;;;;;4.85;3.03;;;11.00;99.90;;;;;;5006265;28;20136;-73
2023/03/19 03:24:30;;;;;;;7.07;3.35;;;11.00;99.90;;;;;;5016921;28;20505;-73
2023/03/19 03:26:56;;;;;;;6.00;3.33;;;11.00;99.90;;;;;;5026869;28;20115;-72
2023/03/19 03:29:22;;;;;;;6.45;3.13;;;11.00;99.90;;;;;;5005107;28;20038;-73
2023/03/19 03:31:48;;;;;;;6.82;3.33;;;11.00;99.90;;;;;;5005769;28;20091;-73
2023/03/19 03:34:14;;;;;;;6.38;3.28;;;11.00;99.90;;;;;;5007145;28;20061;-73
2023/03/19 03:36:39;;;;;;;4.63;3.22;;;11.00;99.90;;;;;;5005546;28;20025;-73
2023/03/19 03:39:05;;;;;;;4.63;3.33;;;11.00;99.90;;;;;;5007072;28;20594;-73
2023/03/19 03:41:31;;;;;;;5.47;2.85;;;11.00;99.90;;;;;;5026061;28;20092;-73
2023/03/19 03:44:00;;;;;;;4.80;2.97;;;11.00;99.90;;;;;;5010672;28;20034;-76
2023/03/19 03:46:26;;;;;;;5.32;3.42;;;11.00;99.90;;;;;;5007898;28;20108;-76
2023/03/19 03:48:52;;;;;;;6.22;2.78;;;11.00;99.90;;;;;;5008669;28;20121;-75
2023/03/19 03:51:18;;;;;;;5.32;3.25;;;10.90;99.90;;;;;;5010319;28;20040;-75
2023/03/19 03:53:44;;;;;;;4.75;3.25;;;11.00;99.90;;;;;;5017516;28;20038;-76
2023/03/19 03:56:10;;;;;;;4.32;3.20;;;11.00;99.90;;;;;;5014471;28;20035;-77
2023/03/19 03:58:36;;;;;;;5.50;2.80;;;11.00;99.90;;;;;;4996019;28;20022;-75
2023/03/19 04:01:03;;;;;;;4.97;3.03;;;10.90;99.90;;;;;;5011692;28;20532;-75
2023/03/19 04:03:29;;;;;;;6.13;3.22;;;10.90;99.90;;;;;;5006927;28;20037;-75
2023/03/19 04:05:54;;;;;;;4.30;2.75;;;10.90;99.90;;;;;;5011403;28;20171;-73
2023/03/19 04:08:20;;;;;;;4.38;2.78;;;10.90;99.90;;;;;;5010005;28;20036;-73
2023/03/19 04:10:46;;;;;;;4.93;3.38;;;10.90;99.90;;;;;;5012231;28;20131;-73
2023/03/19 04:13:12;;;;;;;4.78;2.95;;;10.90;99.90;;;;;;5013711;28;20046;-73
2023/03/19 04:15:40;;;;;;;4.32;3.00;;;10.80;99.90;;;;;;5012318;28;20072;-72
2023/03/19 04:18:06;;;;;;;4.72;2.90;;;10.90;99.90;;;;;;5007882;28;20034;-73
2023/03/19 04:20:32;;;;;;;4.50;2.58;;;10.80;99.90;;;;;;5010504;28;20470;-73
2023/03/19 04:22:57;;;;;;;3.63;2.80;;;10.80;99.90;;;;;;5013870;28;20034;-75
2023/03/19 04:25:23;;;;;;;5.05;2.83;;;10.80;99.90;;;;;;5037292;28;20029;-75
2023/03/19 04:27:49;;;;;;;5.30;2.90;;;10.80;99.90;;;;;;5008144;28;20030;-75
2023/03/19 04:30:15;;;;;;;4.00;3.00;;;10.80;99.90;;;;;;5010031;28;20040;-75
2023/03/19 04:32:43;;;;;;;4.43;3.10;;;10.80;99.90;;;;;;5010654;28;20037;-75
2023/03/19 04:35:09;;;;;;;5.22;3.05;;;10.80;99.90;;;;;;5033009;28;20045;-75
2023/03/19 04:37:34;;;;;;;4.85;3.33;;;10.80;99.90;;;;;;5008375;28;20049;-75
2023/03/19 04:40:00;;;;;;;5.63;3.75;;;10.80;99.90;;;;;;5010533;28;20383;-76
2023/03/19 04:42:26;;;;;;;3.90;3.28;;;10.80;99.90;;;;;;4993451;28;20189;-75
2023/03/19 04:44:52;;;;;;;5.10;3.20;;;10.70;99.90;;;;;;5009530;28;20029;-75
2023/03/19 04:47:18;;;;;;;6.20;3.17;;;10.80;99.90;;;;;;4993504;28;20038;-75
2023/03/19 04:49:43;;;;;;;4.38;3.38;;;10.80;99.90;;;;;;5006985;28;20030;-76
2023/03/19 04:52:09;;;;;;;4.93;3.20;;;10.70;99.90;;;;;;5008511;28;20120;-75
2023/03/19 04:54:35;;;;;;;5.35;3.85;;;10.70;99.90;;;;;;5010037;28;20486;-76
2023/03/19 04:57:00;;;;;;;5.53;3.47;;;10.80;99.90;;;;;;5008723;28;20034;-75
2023/03/19 04:59:26;;;;;;;3.95;3.20;;;10.80;99.90;;;;;;5011997;28;20033;-75
2023/03/19 05:01:52;;;;;;;5.13;3.75;;;10.80;99.90;;;;;;5009356;28;20030;-75
2023/03/19 05:04:18;;;;;;;5.90;3.60;;;10.80;99.90;;;;;;5008624;28;20034;-76
2023/03/19 05:06:43;;;;;;;5.72;3.35;;;10.90;99.90;;;;;;4993846;28;20026;-75
2023/03/19 05:09:09;;;;;;;5.55;3.42;;;10.90;99.90;;;;;;5008225;28;20033;-75
2023/03/19 05:11:36;;;;;;;6.95;3.97;;;10.90;99.90;;;;;;5037963;28;20026;-75
2023/03/19 05:14:02;;;;;;;6.75;3.67;;;10.90;99.90;;;;;;5010764;28;20053;-76
2023/03/19 05:16:28;;;;;;;7.25;4.47;;;10.90;99.90;;;;;;5009331;28;20022;-76
2023/03/19 05:18:54;;;;;;;5.38;4.10;;;10.90;99.90;;;;;;5007524;28;20532;-75
2023/03/19 05:21:20;;;;;;;7.40;4.13;;;10.90;99.90;;;;;;5031086;28;20022;-76
2023/03/19 05:23:46;;;;;;;6.53;4.00;;;10.90;99.90;;;;;;5009564;28;20038;-75
2023/03/19 05:26:11;;;;;;;5.85;4.50;;;10.90;99.90;;;;;;5025763;28;20038;-72
2023/03/19 05:28:38;;;;;;;6.78;4.22;;;10.90;99.90;;;;;;5008671;28;20390;-73
2023/03/19 05:31:04;;;;;;;5.05;3.90;;;10.90;99.90;;;;;;5009698;28;20460;-72
2023/03/19 05:33:31;;;;;;;7.15;4.43;;;10.90;99.90;;;;;;5008558;28;20088;-72
2023/03/19 05:35:57;;;;;;;6.90;4.35;;;10.80;99.90;;;;;;5008867;28;20052;-73
2023/03/19 05:38:22;;;;;;;7.70;4.68;;;10.80;99.90;;;;;;5007118;28;20957;-72
2023/03/19 05:40:48;;;;;;;5.63;4.32;;;10.80;99.90;;;;;;5029980;28;20025;-72
2023/03/19 05:43:14;;;;;;;4.90;4.22;;;10.80;99.90;;;;;;5005121;28;20030;-72
2023/03/19 05:45:41;;;;;;;5.88;4.70;;;10.80;99.90;;;;;;5009159;28;20026;-73
2023/03/19 05:48:07;;;;;;;4.85;4.35;;;10.80;99.90;;;;;;5033616;28;20446;-72
2023/03/19 05:50:33;;;;;;;6.13;4.50;;;10.70;99.90;;;;;;5009210;28;20156;-72
2023/03/19 05:52:59;;;;;;;7.75;5.10;;;10.80;99.90;;;;;;4991211;28;20117;-72
2023/03/19 05:55:25;;;;;;;6.32;5.20;;;10.80;99.90;;;;;;5032470;28;20149;-73
2023/03/19 05:57:51;;;;;;;7.65;5.00;;;10.80;99.90;;;;;;5009943;28;20025;-73
2023/03/19 06:00:17;;;;;;;9.00;6.13;;;10.80;99.90;;;;;;5008193;28;20105;-72
2023/03/19 06:02:43;;;;;;;9.38;7.43;;;10.80;99.90;;;;;;5008875;28;20076;-72
2023/03/19 06:05:09;;;;;;;12.10;9.10;;;10.70;99.90;;;;;;5007434;28;20069;-73
2023/03/19 06:07:36;;;;;;;10.02;8.55;;;10.70;99.90;;;;;;5007414;28;20029;-72
2023/03/19 06:10:03;;;;;;;9.32;7.72;;;10.80;99.90;;;;;;5009144;28;20195;-73
2023/03/19 06:12:29;;;;;;;8.93;7.15;;;10.90;99.90;;;;;;5007029;28;20034;-75
2023/03/19 06:14:56;;;;;;;9.20;7.53;;;10.90;99.90;;;;;;5003575;28;20044;-76
2023/03/19 06:17:21;;;;;;;7.90;6.45;;;10.90;99.90;;;;;;5016790;28;20029;-76
2023/03/19 06:19:47;;;;;;;9.43;6.20;;;10.90;99.90;;;;;;5007813;28;20033;-75
2023/03/19 06:22:13;;;;;;;8.05;6.47;;;10.80;99.90;;;;;;5007659;28;20543;-75
2023/03/19 06:24:39;;;;;;;10.20;7.32;;;10.90;99.90;;;;;;5008800;28;20030;-75
2023/03/19 06:27:05;;;;;;;9.20;6.63;;;10.90;99.90;;;;;;5004819;28;20136;-76
2023/03/19 06:29:31;;;;;;;10.77;7.10;;;10.80;99.90;;;;;;5003219;28;20108;-75
2023/03/19 06:31:56;;;;;;;7.20;6.10;;;10.90;99.90;;;;;;5010121;28;20117;-75
2023/03/19 06:34:22;;;;;;;8.25;6.57;;;10.90;99.90;;;;;;5008123;28;20041;-73
2023/03/19 06:36:48;;;;;;;10.75;7.40;;;11.00;99.90;;;;;;5006110;28;20034;-72
2023/03/19 06:39:14;;;;;;;8.45;7.03;;;11.00;99.90;;;;;;5007709;28;20403;-73
2023/03/19 06:41:40;;;;;;;9.05;6.95;;;11.00;99.90;;;;;;5004970;28;20022;-73
2023/03/19 06:44:08;;;;;;;9.18;6.60;;;11.00;99.90;;;;;;5005375;28;20049;-73
2023/03/19 06:46:34;;;;;;;9.32;6.97;;;11.10;99.90;;;;;;5015923;28;20037;-72
2023/03/19 06:49:00;;;;;;;9.63;6.95;;;11.20;99.90;;;;;;5001857;28;20105;-73
2023/03/19 06:51:28;;;;;;;10.18;7.40;;;11.20;99.90;;;;;;5005992;28;20034;-73
2023/03/19 06:53:55;;;;;;;7.70;6.30;;;11.20;99.90;;;;;;5006492;28;20030;-73
2023/03/19 06:56:21;;;;;;;7.90;6.60;;;11.20;99.90;;;;;;5007962;28;20025;-73
2023/03/19 06:58:46;;;;;;;8.52;6.55;;;11.30;99.90;;;;;;5032033;28;20401;-73
2023/03/19 07:01:12;;;;;;;9.43;6.70;;;11.30;99.90;;;;;;5025892;28;20107;-73
2023/03/19 07:03:38;;;;;;;8.43;6.15;;;11.40;99.90;;;;;;5006442;28;20033;-75
2023/03/19 07:06:04;;;;;;;8.10;6.32;;;11.40;99.90;;;;;;5007425;28;20503;-75
2023/03/19 07:08:30;;;;;;;7.90;6.30;;;11.50;99.90;;;;;;5006388;28;20064;-75
2023/03/19 07:10:56;;;;;;;11.82;7.22;;;11.50;99.90;;;;;;5005658;28;20486;-75
2023/03/19 07:13:22;;;;;;;9.38;7.88;;;11.50;99.90;;;;;;5034316;28;20029;-75
2023/03/19 07:15:48;;;;;;;8.88;6.28;;;11.60;99.90;;;;;;5005487;28;20033;-75
2023/03/19 07:18:14;;;;;;;7.47;6.65;;;11.50;99.90;;;;;;4999716;28;20048;-75
2023/03/19 07:20:39;;;;;;;7.65;6.55;;;11.60;99.90;;;;;;5006264;28;20089;-75
2023/03/19 07:23:05;;;;;;;8.63;6.38;;;11.60;99.90;;;;;;5004195;28;20029;-73
2023/03/19 07:25:31;;;;;;;9.57;6.28;;;11.70;99.90;;;;;;5003882;28;20034;-75
2023/03/19 07:27:57;;;;;;;9.00;6.63;;;11.70;99.90;;;;;;5004598;28;20044;-76
2023/03/19 07:30:23;;;;;;;8.85;6.68;;;11.80;99.90;;;;;;5007141;28;20025;-75
2023/03/19 07:32:49;;;;;;;10.27;6.43;;;11.90;99.90;;;;;;5005780;28;20057;-73
2023/03/19 07:35:15;;;;;;;11.55;6.80;;;11.90;99.90;;;;;;5003534;28;20038;-73
2023/03/19 07:37:41;;;;;;;8.50;6.78;;;12.00;99.90;;;;;;5003827;28;20108;-73
2023/03/19 07:40:08;;;;;;;11.20;7.75;;;12.10;99.90;;;;;;5007691;28;20041;-73
2023/03/19 07:42:35;;;;;;;8.20;6.45;;;12.10;99.90;;;;;;5005708;28;20038;-73
2023/03/19 07:45:02;;;;;;;10.73;6.90;;;12.10;99.90;;;;;;5004757;28;20112;-74
2023/03/19 07:47:29;;;;;;;10.43;7.60;;;12.20;99.90;;;;;;5003087;28;20037;-76
2023/03/19 07:49:56;;;;;;;10.43;7.35;;;12.20;99.90;;;;;;4987929;28;20037;-73
2023/03/19 07:52:22;;;;;;;9.82;7.47;;;12.20;99.90;;;;;;5003811;28;20636;-73
2023/03/19 07:54:49;;;;;;;10.45;6.97;;;12.10;99.90;;;;;;5005606;28;20045;-76
2023/03/19 07:57:15;;;;;;;9.93;6.63;;;12.10;99.90;;;;;;5004247;28;20032;-77
2023/03/19 07:59:41;;;;;;;10.63;7.10;;;12.20;99.90;;;;;;5017334;28;20038;-73
2023/03/19 08:02:12;;;;;;;9.32;6.93;;;12.20;99.90;;;;;;5002529;28;20030;-74
2023/03/19 08:04:39;;;;;;;9.25;6.90;;;12.20;99.90;;;;;;5004041;28;20513;-76
2023/03/19 08:07:05;;;;;;;8.50;6.68;;;12.30;99.90;;;;;;5004860;28;20037;-76
2023/03/19 08:09:31;;;;;;;9.52;6.28;;;12.40;99.90;;;;;;5006381;28;20065;-73
2023/03/19 08:11:57;;;;;;;9.60;6.30;;;12.40;99.90;;;;;;5006520;28;20022;-73
2023/03/19 08:14:23;;;;;;;10.07;7.00;;;12.50;99.90;;;;;;5003283;28;20041;-76
2023/03/19 08:16:49;;;;;;;10.75;6.93;;;12.50;99.90;;;;;;5007386;28;20036;-74
2023/03/19 08:19:15;;;;;;;9.43;6.55;;;12.50;99.90;;;;;;5007513;28;20022;-73
2023/03/19 08:21:41;;;;;;;10.05;6.72;;;12.60;99.90;;;;;;5016595;28;20155;-77
2023/03/19 08:24:07;;;;;;;8.70;5.60;;;12.60;99.90;;;;;;5005033;28;20033;-73
2023/03/19 08:26:33;;;;;;;8.18;6.18;;;12.70;99.90;;;;;;5006867;28;20034;-72
2023/03/19 08:28:59;;;;;;;9.88;7.03;;;12.70;99.90;;;;;;5007672;28;20059;-73
2023/03/19 08:31:25;;;;;;;8.43;6.75;;;12.70;99.90;;;;;;5008086;28;20044;-73
2023/03/19 08:33:52;;;;;;;7.82;6.07;;;12.80;99.90;;;;;;5011604;28;20042;-76
2023/03/19 08:36:18;;;;;;;8.40;5.88;;;12.90;99.90;;;;;;5009918;28;20026;-75
2023/03/19 08:38:43;;;;;;;10.07;7.07;;;12.90;99.90;;;;;;5008706;28;20037;-76
2023/03/19 08:41:09;;;;;;;9.57;6.68;;;12.90;99.90;;;;;;5008756;28;20517;-73
2023/03/19 08:43:37;;;;;;;8.40;6.60;;;13.00;99.90;;;;;;5007903;28;20026;-77
2023/03/19 08:46:04;;;;;;;9.40;6.70;;;13.10;99.90;;;;;;5007679;28;20026;-80
2023/03/19 08:48:32;;;;;;;8.38;5.85;;;13.10;99.90;;;;;;5002281;28;20057;-76
2023/03/19 08:51:01;;;;;;;7.70;5.85;;;13.10;99.90;;;;;;5007727;28;20029;-73
2023/03/19 08:53:27;;;;;;;7.60;5.97;;;13.20;99.90;;;;;;5007241;28;20025;-73
2023/03/19 08:56:05;;;;;;;9.07;5.63;;;13.20;99.90;;;;;;5017648;28;20100;-76
2023/03/19 08:58:31;;;;;;;8.98;5.90;;;13.20;99.90;;;;;;4989200;28;20026;-74
2023/03/19 09:01:04;;;;;;;6.50;4.90;;;13.10;99.90;;;;;;5010221;28;20029;-73
2023/03/19 09:03:31;;;;;;;7.68;5.10;;;13.10;99.90;;;;;;5035593;28;20037;-76
2023/03/19 09:06:01;;;;;;;8.57;5.50;;;13.20;99.90;;;;;;5010318;28;20091;-78
2023/03/19 09:08:27;;;;;;;6.82;4.88;;;13.10;99.90;;;;;;5006236;28;20048;-76
2023/03/19 09:10:54;;;;;;;9.55;5.68;;;13.10;99.90;;;;;;5010971;28;20512;-76
2023/03/19 09:13:22;;;;;;;10.40;5.82;;;13.10;99.90;;;;;;5012918;28;20036;-76
2023/03/19 09:15:48;;;;;;;7.03;5.10;;;13.20;99.90;;;;;;5008456;28;20627;-76
2023/03/19 09:18:14;;;;;;;8.27;4.97;;;13.40;99.90;;;;;;4990935;28;20029;-74
2023/03/19 09:20:40;;;;;;;7.05;4.50;;;13.60;99.90;;;;;;5002565;28;20505;-74
2023/03/19 09:23:06;;;;;;;5.95;4.15;;;13.90;99.90;;;;;;5007909;28;20038;-74
2023/03/19 09:25:32;;;;;;;6.95;4.28;;;14.10;99.90;;;;;;5010250;28;20037;-77
2023/03/19 09:27:58;;;;;;;6.50;4.25;;;14.30;99.90;;;;;;5015260;28;20033;-75
2023/03/19 09:30:24;;;;;;;8.95;4.00;;;14.40;99.90;;;;;;5010546;28;20036;-76
2023/03/19 09:32:49;;;;;;;4.85;4.00;;;14.50;99.90;;;;;;5009962;28;20022;-76
2023/03/19 09:35:15;;;;;;;5.13;3.60;;;14.50;99.90;;;;;;5009215;28;20030;-77
2023/03/19 09:37:41;;;;;;;5.32;3.33;;;14.50;99.90;;;;;;5002146;28;20022;-75
2023/03/19 09:40:20;;;;;;;6.00;3.75;;;14.50;99.90;;;;;;5007694;28;20080;-76
2023/03/19 09:43:05;;;;;;;4.78;3.55;;;14.60;99.90;;;;;;5009722;28;20022;-74
2023/03/19 09:45:32;;;;;;;5.32;2.97;;;14.80;99.90;;;;;;5008741;28;20032;-78
2023/03/19 09:48:04;;;;;;;5.97;3.30;;;14.80;99.90;;;;;;5010150;28;20044;-74
2023/03/19 09:50:33;;;;;;;5.65;3.08;;;14.70;99.90;;;;;;5010974;28;20108;-74
2023/03/19 09:53:27;;;;;;;4.25;3.10;;;14.70;99.90;;;;;;5011484;28;20183;-77
2023/03/19 09:55:57;;;;;;;7.63;3.08;;;15.00;99.90;;;;;;5004214;28;20045;-74
2023/03/19 09:58:31;;;;;;;4.85;2.40;;;15.10;99.90;;;;;;5008238;28;20061;-74
2023/03/19 10:00:58;;;;;;;1097.35;620.85;;;15.20;99.90;;;;;;5009173;28;20117;-74
2023/03/19 10:03:29;;;;;;;471.23;270.88;;;15.20;99.90;;;;;;5011104;28;20299;-74
2023/03/19 10:06:13;;;;;;;736.75;547.50;;;15.20;99.90;;;;;;5010428;28;20033;-73
2023/03/19 10:08:47;;;;;;;571.38;436.75;;;15.40;99.90;;;;;;5005189;28;20029;-76
2023/03/19 10:11:49;;;;;;;39.22;27.30;;;15.60;99.90;;;;;;5007783;28;20026;-76
2023/03/19 10:14:33;;;;;;;;;;;15.60;99.90;;;;;;5006335;28;20414;-77
2023/03/19 10:17:03;;;;;;;7.13;3.72;;;15.40;99.90;;;;;;5024971;28;20373;-73
2023/03/19 10:19:42;;;;;;;3.53;2.78;;;15.50;99.90;;;;;;5011416;28;20030;-74
2023/03/19 10:22:13;;;;;;;4.95;3.40;;;15.70;99.90;;;;;;5010635;28;20490;-74
2023/03/19 10:24:43;;;;;;;3.90;2.70;;;15.70;99.90;;;;;;5008378;28;20053;-76
2023/03/19 10:27:16;;;;;;;6.63;3.58;;;15.90;99.90;;;;;;5007090;28;20030;-76
2023/03/19 10:29:42;;;;;;;4.10;2.95;;;15.90;99.90;;;;;;4990863;28;20046;-74
2023/03/19 10:32:19;;;;;;;5.25;3.42;;;15.80;99.90;;;;;;5006950;28;20148;-76
2023/03/19 10:34:52;;;;;;;8.77;3.10;;;15.60;99.90;;;;;;5010213;28;20026;-74
2023/03/19 10:37:20;;;;;;;4.95;3.03;;;15.60;99.90;;;;;;5031305;28;20907;-77
2023/03/19 10:39:49;;;;;;;6.97;3.58;;;15.60;99.90;;;;;;5004847;28;20033;-77
2023/03/19 10:42:18;;;;;;;5.20;3.50;;;15.70;99.90;;;;;;4990037;28;20029;-74
2023/03/19 10:44:54;;;;;;;6.70;3.83;;;15.80;99.90;;;;;;5008977;28;20018;-77
2023/03/19 10:47:25;;;;;;;5.45;3.28;;;16.00;99.90;;;;;;5008600;28;20072;-77
2023/03/19 10:49:50;;;;;;;3.67;2.70;;;16.10;99.90;;;;;;5008093;28;20049;-76
2023/03/19 10:52:33;;;;;;;7.05;2.80;;;16.30;99.90;;;;;;5006595;28;20493;-76
2023/03/19 10:55:16;;;;;;;5.78;3.17;;;16.20;99.90;;;;;;5008023;28;20034;-73
2023/03/19 10:57:44;;;;;;;6.88;3.00;;;16.30;99.90;;;;;;5007217;28;20033;-78
2023/03/19 11:00:24;;;;;;;7.20;3.47;;;16.20;99.90;;;;;;4988474;28;20125;-76
2023/03/19 11:02:55;;;;;;;7.00;3.30;;;16.10;99.90;;;;;;5008269;28;20021;-76
2023/03/19 11:05:20;;;;;;;4.03;2.60;;;16.00;99.90;;;;;;5005645;28;20026;-74
2023/03/19 11:07:54;;;;;;;4.10;3.50;;;16.10;99.90;;;;;;5007471;28;20453;-74
2023/03/19 11:10:23;;;;;;;3.30;2.55;;;16.30;99.90;;;;;;5007677;28;20204;-74
2023/03/19 11:12:55;;;;;;;5.90;3.38;;;16.90;99.90;;;;;;5005502;28;20041;-73
2023/03/19 11:15:25;;;;;;;5.50;3.22;;;17.10;99.90;;;;;;5007687;28;20053;-73
2023/03/19 11:17:59;;;;;;;4.68;2.90;;;18.20;99.90;;;;;;5006695;28;20131;-77
2023/03/19 11:20:49;;;;;;;4.22;2.45;;;20.00;97.40;;;;;;5006629;28;20026;-75
2023/03/19 11:23:16;;;;;;;3.90;2.63;;;20.90;91.50;;;;;;5032112;28;20022;-74
2023/03/19 11:25:51;;;;;;;4.90;3.40;;;20.40;91.60;;;;;;5007657;28;20029;-73
2023/03/19 11:28:23;;;;;;;5.63;3.35;;;19.90;90.70;;;;;;5006461;28;20038;-78
2023/03/19 11:31:10;;;;;;;6.25;3.60;;;19.50;91.00;;;;;;5004924;28;20026;-77
2023/03/19 11:34:13;;;;;;;4.90;3.05;;;19.40;92.00;;;;;;5007787;28;20480;-74
2023/03/19 11:37:05;;;;;;;5.70;2.90;;;19.90;91.70;;;;;;5008947;28;20608;-77
2023/03/19 11:39:53;;;;;;;3.88;2.88;;;19.40;92.10;;;;;;5004754;28;20172;-74
2023/03/19 11:42:30;;;;;;;7.45;4.00;;;19.20;92.90;;;;;;5009731;28;20030;-74
2023/03/19 11:45:12;;;;;;;4.10;2.90;;;19.20;93.20;;;;;;5021281;28;20109;-77
2023/03/19 11:47:52;;;;;;;5.20;3.17;;;19.20;93.70;;;;;;5007694;28;20034;-74
2023/03/19 11:50:21;;;;;;;5.75;3.67;;;18.70;94.60;;;;;;5007584;28;20034;-77
2023/03/19 11:53:11;;;;;;;8.27;3.80;;;18.50;94.40;;;;;;5007281;28;20046;-74
2023/03/19 11:55:56;;;;;;;5.25;3.58;;;18.10;95.50;;;;;;5008236;28;20410;-76
2023/03/19 11:58:46;;;;;;;6.68;3.63;;;17.70;96.40;;;;;;5006363;28;20124;-76
2023/03/19 12:01:19;;;;;;;7.32;3.97;;;17.60;97.50;;;;;;5001685;28;20413;-73
2023/03/19 12:04:04;;;;;;;4.90;2.83;;;17.30;98.70;;;;;;5034315;28;20022;-74
2023/03/19 12:06:38;;;;;;;3.45;2.75;;;17.00;98.70;;;;;;5010155;28;20026;-74
2023/03/19 12:09:25;;;;;;;5.82;3.80;;;16.90;99.70;;;;;;5012525;28;20092;-76
2023/03/19 12:12:08;;;;;;;7.90;4.47;;;16.80;99.90;;;;;;5032399;28;20088;-78
2023/03/19 12:15:11;;;;;;;5.40;4.50;;;16.80;99.90;;;;;;5015062;28;20036;-77
2023/03/19 12:18:04;;;;;;;6.30;4.40;;;16.70;99.90;;;;;;5013812;28;20022;-78
2023/03/19 12:21:10;;;;;;;8.13;4.85;;;16.70;99.90;;;;;;5017754;28;20096;-77
2023/03/19 12:23:57;;;;;;;9.20;4.88;;;16.60;99.90;;;;;;5006132;28;20117;-77
2023/03/19 12:26:48;;;;;;;6.32;4.68;;;16.50;99.90;;;;;;5014576;28;20050;-77
2023/03/19 12:29:28;;;;;;;5.87;4.57;;;16.40;99.90;;;;;;5030697;28;20030;-77
2023/03/19 12:32:26;;;;;;;6.25;4.18;;;16.40;99.90;;;;;;5011781;28;20296;-78
2023/03/19 12:34:57;;;;;;;6.70;4.35;;;16.60;99.90;;;;;;5010263;28;20045;-77
2023/03/19 12:37:22;;;;;;;;;;;16.60;99.90;;;;;;4991735;28;20036;-74
2023/03/19 12:40:14;;;;;;;8.10;3.80;;;16.70;99.90;;;;;;5012094;28;19905;-73
2023/03/19 12:42:40;;;;;;;4.25;3.33;;;16.60;99.90;;;;;;5034500;28;20125;-73
2023/03/19 12:45:33;;;;;;;5.80;3.35;;;16.60;99.90;;;;;;5009490;28;20501;-76
2023/03/19 12:48:27;;;;;;;5.88;3.10;;;16.50;99.90;;;;;;5010798;28;20240;-73
2023/03/19 12:50:57;;;;;;;5.10;3.22;;;16.40;99.90;;;;;;5007776;28;20072;-75
2023/03/19 12:53:42;;;;;;;4.63;2.53;;;16.40;99.90;;;;;;5008496;28;20030;-74
2023/03/19 12:56:18;;;;;;;3.38;2.40;;;16.60;99.90;;;;;;5009383;28;20486;-73
2023/03/19 12:59:21;;;;;;;3.72;2.80;;;16.50;99.90;;;;;;5041265;28;20084;-75